sensor_id;sensor_type;location;lat;lon;timestamp;P1;durP1;ratioP1;P2;durP2;ratioP2
28627;SDS011;15815;46.760;19.604;2023-05-07T00:01:09;10.23;;;9.23;;
28627;SDS011;15815;46.760;19.604;2023-05-07T00:03:35;12.90;;;9.57;;
28627;SDS011;15815;46.760;19.604;2023-05-07T00:06:01;11.32;;;9.10;;
28627;SDS011;15815;46.760;19.604;2023-05-07T00:08:27;13.73;;;10.30;;
28627;SDS011;15815;46.760;19.604;2023-05-07T00:10:52;12.52;;;9.57;;
28627;SDS011;15815;46.760;19.604;2023-05-07T00:13:18;13.50;;;9.77;;
28627;SDS011;15815;46.760;19.604;2023-05-07T00:15:43;10.40;;;9.40;;
28627;SDS011;15815;46.760;19.604;2023-05-07T00:18:09;14.48;;;9.80;;
28627;SDS011;15815;46.760;19.604;2023-05-07T00:20:34;11.70;;;9.85;;
28627;SDS011;15815;46.760;19.604;2023-05-07T00:23:00;13.52;;;9.93;;
28627;SDS011;15815;46.760;19.604;2023-05-07T00:25:26;11.48;;;9.55;;
28627;SDS011;15815;46.760;19.604;2023-05-07T00:27:51;14.23;;;9.52;;
28627;SDS011;15815;46.760;19.604;2023-05-07T00:30:17;13.20;;;9.85;;
28627;SDS011;15815;46.760;19.604;2023-05-07T00:32:42;12.50;;;9.60;;
28627;SDS011;15815;46.760;19.604;2023-05-07T00:35:08;12.00;;;10.30;;
28627;SDS011;15815;46.760;19.604;2023-05-07T00:37:35;14.65;;;10.88;;
28627;SDS011;15815;46.760;19.604;2023-05-07T00:40:00;13.38;;;11.38;;
28627;SDS011;15815;46.760;19.604;2023-05-07T00:42:26;14.32;;;11.60;;
28627;SDS011;15815;46.760;19.604;2023-05-07T00:44:51;17.55;;;11.85;;
28627;SDS011;15815;46.760;19.604;2023-05-07T00:47:17;12.65;;;10.85;;
28627;SDS011;15815;46.760;19.604;2023-05-07T00:49:43;14.68;;;11.15;;
28627;SDS011;15815;46.760;19.604;2023-05-07T00:52:11;14.25;;;11.35;;
28627;SDS011;15815;46.760;19.604;2023-05-07T00:54:40;12.10;;;10.82;;
28627;SDS011;15815;46.760;19.604;2023-05-07T00:57:06;13.95;;;11.60;;
28627;SDS011;15815;46.760;19.604;2023-05-07T00:59:32;13.18;;;11.02;;
28627;SDS011;15815;46.760;19.604;2023-05-07T01:01:58;13.35;;;10.95;;
28627;SDS011;15815;46.760;19.604;2023-05-07T01:04:25;17.20;;;11.38;;
28627;SDS011;15815;46.760;19.604;2023-05-07T01:06:52;14.48;;;11.30;;
28627;SDS011;15815;46.760;19.604;2023-05-07T01:09:20;20.30;;;11.38;;
28627;SDS011;15815;46.760;19.604;2023-05-07T01:11:46;15.70;;;11.45;;
28627;SDS011;15815;46.760;19.604;2023-05-07T01:14:13;13.73;;;11.25;;
28627;SDS011;15815;46.760;19.604;2023-05-07T01:16:38;14.75;;;10.63;;
28627;SDS011;15815;46.760;19.604;2023-05-07T01:19:04;16.15;;;10.80;;
28627;SDS011;15815;46.760;19.604;2023-05-07T01:21:31;15.10;;;11.15;;
28627;SDS011;15815;46.760;19.604;2023-05-07T01:23:58;17.45;;;11.18;;
28627;SDS011;15815;46.760;19.604;2023-05-07T01:26:24;12.75;;;11.35;;
28627;SDS011;15815;46.760;19.604;2023-05-07T01:28:50;13.32;;;11.02;;
28627;SDS011;15815;46.760;19.604;2023-05-07T01:31:15;15.90;;;12.25;;
28627;SDS011;15815;46.760;19.604;2023-05-07T01:33:43;16.63;;;11.00;;
28627;SDS011;15815;46.760;19.604;2023-05-07T01:36:13;13.93;;;10.80;;
28627;SDS011;15815;46.760;19.604;2023-05-07T01:38:39;13.05;;;11.68;;
28627;SDS011;15815;46.760;19.604;2023-05-07T01:41:06;11.40;;;10.27;;
28627;SDS011;15815;46.760;19.604;2023-05-07T01:43:32;14.52;;;10.95;;
28627;SDS011;15815;46.760;19.604;2023-05-07T01:45:58;13.95;;;11.73;;
28627;SDS011;15815;46.760;19.604;2023-05-07T01:48:29;13.07;;;11.70;;
28627;SDS011;15815;46.760;19.604;2023-05-07T01:50:55;13.45;;;10.48;;
28627;SDS011;15815;46.760;19.604;2023-05-07T01:53:21;15.27;;;11.48;;
28627;SDS011;15815;46.760;19.604;2023-05-07T01:55:47;12.77;;;11.32;;
28627;SDS011;15815;46.760;19.604;2023-05-07T01:58:12;16.00;;;10.93;;
28627;SDS011;15815;46.760;19.604;2023-05-07T02:00:39;14.48;;;12.02;;
28627;SDS011;15815;46.760;19.604;2023-05-07T02:03:05;14.00;;;12.43;;
28627;SDS011;15815;46.760;19.604;2023-05-07T02:05:31;13.93;;;11.50;;
28627;SDS011;15815;46.760;19.604;2023-05-07T02:07:56;15.30;;;11.63;;
28627;SDS011;15815;46.760;19.604;2023-05-07T02:10:22;15.82;;;12.00;;
28627;SDS011;15815;46.760;19.604;2023-05-07T02:12:47;13.13;;;11.65;;
28627;SDS011;15815;46.760;19.604;2023-05-07T02:15:13;13.75;;;12.27;;
28627;SDS011;15815;46.760;19.604;2023-05-07T02:17:39;17.90;;;12.50;;
28627;SDS011;15815;46.760;19.604;2023-05-07T02:20:22;15.73;;;11.68;;
28627;SDS011;15815;46.760;19.604;2023-05-07T02:22:48;13.98;;;12.18;;
28627;SDS011;15815;46.760;19.604;2023-05-07T02:25:13;12.50;;;11.25;;
28627;SDS011;15815;46.760;19.604;2023-05-07T02:27:39;13.75;;;12.32;;
28627;SDS011;15815;46.760;19.604;2023-05-07T02:30:05;13.75;;;11.75;;
28627;SDS011;15815;46.760;19.604;2023-05-07T02:32:33;16.20;;;11.70;;
28627;SDS011;15815;46.760;19.604;2023-05-07T02:34:59;12.82;;;11.48;;
28627;SDS011;15815;46.760;19.604;2023-05-07T02:37:24;15.63;;;11.82;;
28627;SDS011;15815;46.760;19.604;2023-05-07T02:39:50;12.40;;;11.15;;
28627;SDS011;15815;46.760;19.604;2023-05-07T02:42:15;13.05;;;11.68;;
28627;SDS011;15815;46.760;19.604;2023-05-07T02:44:41;13.70;;;12.23;;
28627;SDS011;15815;46.760;19.604;2023-05-07T02:47:06;13.23;;;11.80;;
28627;SDS011;15815;46.760;19.604;2023-05-07T02:49:31;12.70;;;11.40;;
28627;SDS011;15815;46.760;19.604;2023-05-07T02:51:57;14.63;;;12.07;;
28627;SDS011;15815;46.760;19.604;2023-05-07T02:54:23;13.98;;;11.07;;
28627;SDS011;15815;46.760;19.604;2023-05-07T02:56:48;17.95;;;10.63;;
28627;SDS011;15815;46.760;19.604;2023-05-07T02:59:14;12.98;;;10.77;;
28627;SDS011;15815;46.760;19.604;2023-05-07T03:01:39;14.13;;;11.38;;
28627;SDS011;15815;46.760;19.604;2023-05-07T03:04:05;13.27;;;10.20;;
28627;SDS011;15815;46.760;19.604;2023-05-07T03:06:30;11.48;;;9.00;;
28627;SDS011;15815;46.760;19.604;2023-05-07T03:08:56;10.60;;;8.68;;
28627;SDS011;15815;46.760;19.604;2023-05-07T03:11:21;12.63;;;9.18;;
28627;SDS011;15815;46.760;19.604;2023-05-07T03:13:47;10.02;;;8.48;;
28627;SDS011;15815;46.760;19.604;2023-05-07T03:16:12;11.43;;;7.72;;
28627;SDS011;15815;46.760;19.604;2023-05-07T03:18:38;8.65;;;7.75;;
28627;SDS011;15815;46.760;19.604;2023-05-07T03:21:03;11.00;;;6.93;;
28627;SDS011;15815;46.760;19.604;2023-05-07T03:23:29;13.88;;;7.57;;
28627;SDS011;15815;46.760;19.604;2023-05-07T03:25:54;8.43;;;6.85;;
28627;SDS011;15815;46.760;19.604;2023-05-07T03:28:20;10.90;;;6.72;;
28627;SDS011;15815;46.760;19.604;2023-05-07T03:30:45;10.20;;;6.53;;
28627;SDS011;15815;46.760;19.604;2023-05-07T03:33:11;6.70;;;5.90;;
28627;SDS011;15815;46.760;19.604;2023-05-07T03:35:36;10.52;;;5.60;;
28627;SDS011;15815;46.760;19.604;2023-05-07T03:38:02;8.32;;;6.68;;
28627;SDS011;15815;46.760;19.604;2023-05-07T03:40:30;7.05;;;5.90;;
28627;SDS011;15815;46.760;19.604;2023-05-07T03:42:56;7.57;;;6.35;;
28627;SDS011;15815;46.760;19.604;2023-05-07T03:45:21;11.52;;;6.22;;
28627;SDS011;15815;46.760;19.604;2023-05-07T03:47:47;10.18;;;6.63;;
28627;SDS011;15815;46.760;19.604;2023-05-07T03:50:15;8.32;;;6.57;;
28627;SDS011;15815;46.760;19.604;2023-05-07T03:52:41;9.73;;;6.22;;
28627;SDS011;15815;46.760;19.604;2023-05-07T03:55:06;8.38;;;6.45;;
28627;SDS011;15815;46.760;19.604;2023-05-07T03:57:32;9.45;;;6.45;;
28627;SDS011;15815;46.760;19.604;2023-05-07T03:59:58;10.93;;;6.80;;
28627;SDS011;15815;46.760;19.604;2023-05-07T04:02:23;12.43;;;6.43;;
28627;SDS011;15815;46.760;19.604;2023-05-07T04:04:49;8.40;;;6.30;;
28627;SDS011;15815;46.760;19.604;2023-05-07T04:07:14;13.23;;;6.80;;
28627;SDS011;15815;46.760;19.604;2023-05-07T04:09:40;8.45;;;6.07;;
28627;SDS011;15815;46.760;19.604;2023-05-07T04:12:05;8.30;;;6.57;;
28627;SDS011;15815;46.760;19.604;2023-05-07T04:14:31;12.00;;;6.28;;
28627;SDS011;15815;46.760;19.604;2023-05-07T04:16:56;13.63;;;7.30;;
28627;SDS011;15815;46.760;19.604;2023-05-07T04:19:22;13.07;;;7.15;;
28627;SDS011;15815;46.760;19.604;2023-05-07T04:21:48;10.15;;;7.57;;
28627;SDS011;15815;46.760;19.604;2023-05-07T04:24:13;13.38;;;6.90;;
28627;SDS011;15815;46.760;19.604;2023-05-07T04:26:39;9.25;;;6.85;;
28627;SDS011;15815;46.760;19.604;2023-05-07T04:29:04;13.00;;;7.10;;
28627;SDS011;15815;46.760;19.604;2023-05-07T04:31:30;8.73;;;7.63;;
28627;SDS011;15815;46.760;19.604;2023-05-07T04:33:55;8.20;;;7.20;;
28627;SDS011;15815;46.760;19.604;2023-05-07T04:36:21;11.02;;;7.53;;
28627;SDS011;15815;46.760;19.604;2023-05-07T04:38:47;9.65;;;6.60;;
28627;SDS011;15815;46.760;19.604;2023-05-07T04:41:13;15.38;;;6.70;;
28627;SDS011;15815;46.760;19.604;2023-05-07T04:43:38;8.07;;;6.22;;
28627;SDS011;15815;46.760;19.604;2023-05-07T04:46:04;9.10;;;6.15;;
28627;SDS011;15815;46.760;19.604;2023-05-07T04:48:29;8.00;;;6.05;;
28627;SDS011;15815;46.760;19.604;2023-05-07T04:50:55;11.52;;;6.63;;
28627;SDS011;15815;46.760;19.604;2023-05-07T04:53:20;7.28;;;6.25;;
28627;SDS011;15815;46.760;19.604;2023-05-07T04:55:46;12.80;;;6.03;;
28627;SDS011;15815;46.760;19.604;2023-05-07T04:58:11;8.98;;;6.22;;
28627;SDS011;15815;46.760;19.604;2023-05-07T05:00:37;11.05;;;6.78;;
28627;SDS011;15815;46.760;19.604;2023-05-07T05:03:03;12.45;;;8.40;;
28627;SDS011;15815;46.760;19.604;2023-05-07T05:05:29;9.98;;;7.07;;
28627;SDS011;15815;46.760;19.604;2023-05-07T05:07:54;11.32;;;6.43;;
28627;SDS011;15815;46.760;19.604;2023-05-07T05:10:20;8.77;;;5.20;;
28627;SDS011;15815;46.760;19.604;2023-05-07T05:12:47;8.40;;;4.22;;
28627;SDS011;15815;46.760;19.604;2023-05-07T05:15:12;7.07;;;4.63;;
28627;SDS011;15815;46.760;19.604;2023-05-07T05:17:39;8.00;;;5.05;;
28627;SDS011;15815;46.760;19.604;2023-05-07T05:20:05;8.40;;;4.78;;
28627;SDS011;15815;46.760;19.604;2023-05-07T05:22:33;7.68;;;4.30;;
28627;SDS011;15815;46.760;19.604;2023-05-07T05:24:59;13.27;;;4.68;;
28627;SDS011;15815;46.760;19.604;2023-05-07T05:27:24;9.30;;;4.30;;
28627;SDS011;15815;46.760;19.604;2023-05-07T05:29:50;6.05;;;4.40;;
28627;SDS011;15815;46.760;19.604;2023-05-07T05:32:15;8.93;;;4.88;;
28627;SDS011;15815;46.760;19.604;2023-05-07T05:34:41;5.00;;;4.10;;
28627;SDS011;15815;46.760;19.604;2023-05-07T05:37:06;10.38;;;4.80;;
28627;SDS011;15815;46.760;19.604;2023-05-07T05:39:32;9.05;;;4.55;;
28627;SDS011;15815;46.760;19.604;2023-05-07T05:41:57;11.23;;;4.90;;
28627;SDS011;15815;46.760;19.604;2023-05-07T05:44:26;10.07;;;4.90;;
28627;SDS011;15815;46.760;19.604;2023-05-07T05:46:51;12.30;;;5.72;;
28627;SDS011;15815;46.760;19.604;2023-05-07T05:49:18;11.35;;;4.90;;
28627;SDS011;15815;46.760;19.604;2023-05-07T05:51:43;9.13;;;4.82;;
28627;SDS011;15815;46.760;19.604;2023-05-07T05:54:09;11.48;;;5.28;;
28627;SDS011;15815;46.760;19.604;2023-05-07T05:56:36;12.10;;;5.10;;
28627;SDS011;15815;46.760;19.604;2023-05-07T05:59:02;8.75;;;5.05;;
28627;SDS011;15815;46.760;19.604;2023-05-07T06:01:28;7.93;;;4.93;;
28627;SDS011;15815;46.760;19.604;2023-05-07T06:03:53;7.70;;;5.65;;
28627;SDS011;15815;46.760;19.604;2023-05-07T06:06:19;11.68;;;5.00;;
28627;SDS011;15815;46.760;19.604;2023-05-07T06:08:44;8.00;;;5.35;;
28627;SDS011;15815;46.760;19.604;2023-05-07T06:11:10;7.25;;;4.93;;
28627;SDS011;15815;46.760;19.604;2023-05-07T06:13:35;12.05;;;5.45;;
28627;SDS011;15815;46.760;19.604;2023-05-07T06:16:02;7.15;;;5.63;;
28627;SDS011;15815;46.760;19.604;2023-05-07T06:18:27;10.32;;;6.18;;
28627;SDS011;15815;46.760;19.604;2023-05-07T06:20:53;5.63;;;4.68;;
28627;SDS011;15815;46.760;19.604;2023-05-07T06:23:18;12.43;;;5.95;;
28627;SDS011;15815;46.760;19.604;2023-05-07T06:25:53;11.65;;;5.60;;
28627;SDS011;15815;46.760;19.604;2023-05-07T06:28:19;12.82;;;6.03;;
28627;SDS011;15815;46.760;19.604;2023-05-07T06:30:45;12.23;;;5.32;;
28627;SDS011;15815;46.760;19.604;2023-05-07T06:33:10;11.90;;;4.97;;
28627;SDS011;15815;46.760;19.604;2023-05-07T06:35:36;8.57;;;4.78;;
28627;SDS011;15815;46.760;19.604;2023-05-07T06:38:01;9.82;;;5.15;;
28627;SDS011;15815;46.760;19.604;2023-05-07T06:40:27;9.65;;;4.68;;
28627;SDS011;15815;46.760;19.604;2023-05-07T06:42:52;6.03;;;4.53;;
28627;SDS011;15815;46.760;19.604;2023-05-07T06:45:19;6.38;;;4.55;;
28627;SDS011;15815;46.760;19.604;2023-05-07T06:47:45;7.47;;;4.53;;
28627;SDS011;15815;46.760;19.604;2023-05-07T06:50:11;7.43;;;4.43;;
28627;SDS011;15815;46.760;19.604;2023-05-07T06:52:40;10.68;;;4.45;;
28627;SDS011;15815;46.760;19.604;2023-05-07T06:55:06;9.15;;;3.83;;
28627;SDS011;15815;46.760;19.604;2023-05-07T06:57:32;8.40;;;4.50;;
28627;SDS011;15815;46.760;19.604;2023-05-07T06:59:57;4.93;;;3.63;;
28627;SDS011;15815;46.760;19.604;2023-05-07T07:02:23;9.73;;;4.30;;
28627;SDS011;15815;46.760;19.604;2023-05-07T07:04:48;11.95;;;4.45;;
28627;SDS011;15815;46.760;19.604;2023-05-07T07:07:14;7.00;;;3.90;;
28627;SDS011;15815;46.760;19.604;2023-05-07T07:09:39;6.60;;;4.38;;
28627;SDS011;15815;46.760;19.604;2023-05-07T07:12:05;7.82;;;4.00;;
28627;SDS011;15815;46.760;19.604;2023-05-07T07:14:30;7.57;;;3.67;;
28627;SDS011;15815;46.760;19.604;2023-05-07T07:16:56;8.10;;;4.05;;
28627;SDS011;15815;46.760;19.604;2023-05-07T07:19:22;5.88;;;3.70;;
28627;SDS011;15815;46.760;19.604;2023-05-07T07:21:47;7.32;;;3.70;;
28627;SDS011;15815;46.760;19.604;2023-05-07T07:24:13;7.97;;;4.00;;
28627;SDS011;15815;46.760;19.604;2023-05-07T07:26:39;9.05;;;3.40;;
28627;SDS011;15815;46.760;19.604;2023-05-07T07:29:05;4.90;;;3.75;;
28627;SDS011;15815;46.760;19.604;2023-05-07T07:31:33;4.22;;;3.45;;
28627;SDS011;15815;46.760;19.604;2023-05-07T07:33:59;6.60;;;3.80;;
28627;SDS011;15815;46.760;19.604;2023-05-07T07:36:24;7.90;;;4.00;;
28627;SDS011;15815;46.760;19.604;2023-05-07T07:38:50;7.80;;;4.05;;
28627;SDS011;15815;46.760;19.604;2023-05-07T07:41:15;8.10;;;4.20;;
28627;SDS011;15815;46.760;19.604;2023-05-07T07:43:41;8.90;;;4.10;;
28627;SDS011;15815;46.760;19.604;2023-05-07T07:46:06;6.57;;;3.97;;
28627;SDS011;15815;46.760;19.604;2023-05-07T07:48:32;6.18;;;4.43;;
28627;SDS011;15815;46.760;19.604;2023-05-07T07:50:58;7.20;;;4.00;;
28627;SDS011;15815;46.760;19.604;2023-05-07T07:53:24;6.75;;;3.90;;
28627;SDS011;15815;46.760;19.604;2023-05-07T07:55:49;6.43;;;4.00;;
28627;SDS011;15815;46.760;19.604;2023-05-07T07:58:15;4.82;;;4.00;;
28627;SDS011;15815;46.760;19.604;2023-05-07T08:00:40;11.32;;;4.90;;
28627;SDS011;15815;46.760;19.604;2023-05-07T08:03:11;9.43;;;4.82;;
28627;SDS011;15815;46.760;19.604;2023-05-07T08:05:36;11.27;;;4.40;;
28627;SDS011;15815;46.760;19.604;2023-05-07T08:08:02;8.70;;;4.30;;
28627;SDS011;15815;46.760;19.604;2023-05-07T08:10:28;8.20;;;4.40;;
28627;SDS011;15815;46.760;19.604;2023-05-07T08:12:53;6.30;;;4.30;;
28627;SDS011;15815;46.760;19.604;2023-05-07T08:15:19;5.45;;;4.50;;
28627;SDS011;15815;46.760;19.604;2023-05-07T08:17:45;11.60;;;4.50;;
28627;SDS011;15815;46.760;19.604;2023-05-07T08:20:10;15.00;;;4.80;;
28627;SDS011;15815;46.760;19.604;2023-05-07T08:22:36;8.23;;;4.45;;
28627;SDS011;15815;46.760;19.604;2023-05-07T08:25:02;7.03;;;4.80;;
28627;SDS011;15815;46.760;19.604;2023-05-07T08:27:29;6.10;;;4.47;;
28627;SDS011;15815;46.760;19.604;2023-05-07T08:29:54;9.93;;;4.53;;
28627;SDS011;15815;46.760;19.604;2023-05-07T08:32:20;6.40;;;5.00;;
28627;SDS011;15815;46.760;19.604;2023-05-07T08:34:47;8.75;;;4.75;;
28627;SDS011;15815;46.760;19.604;2023-05-07T08:37:14;11.20;;;4.78;;
28627;SDS011;15815;46.760;19.604;2023-05-07T08:39:39;5.78;;;4.65;;
28627;SDS011;15815;46.760;19.604;2023-05-07T08:42:05;7.18;;;4.57;;
28627;SDS011;15815;46.760;19.604;2023-05-07T08:44:35;9.95;;;4.85;;
28627;SDS011;15815;46.760;19.604;2023-05-07T08:47:03;6.00;;;4.50;;
28627;SDS011;15815;46.760;19.604;2023-05-07T08:49:32;5.30;;;4.80;;
28627;SDS011;15815;46.760;19.604;2023-05-07T08:51:59;11.75;;;4.88;;
28627;SDS011;15815;46.760;19.604;2023-05-07T08:54:25;6.53;;;4.85;;
28627;SDS011;15815;46.760;19.604;2023-05-07T08:56:52;9.82;;;4.97;;
28627;SDS011;15815;46.760;19.604;2023-05-07T08:59:18;6.70;;;5.10;;
28627;SDS011;15815;46.760;19.604;2023-05-07T09:01:43;19.83;;;6.28;;
28627;SDS011;15815;46.760;19.604;2023-05-07T09:04:09;8.77;;;5.13;;
28627;SDS011;15815;46.760;19.604;2023-05-07T09:06:38;13.30;;;6.03;;
28627;SDS011;15815;46.760;19.604;2023-05-07T09:09:03;11.80;;;5.90;;
28627;SDS011;15815;46.760;19.604;2023-05-07T09:11:29;9.82;;;6.15;;
28627;SDS011;15815;46.760;19.604;2023-05-07T09:13:55;13.30;;;5.72;;
28627;SDS011;15815;46.760;19.604;2023-05-07T09:16:22;7.65;;;5.40;;
28627;SDS011;15815;46.760;19.604;2023-05-07T09:18:48;8.93;;;5.47;;
28627;SDS011;15815;46.760;19.604;2023-05-07T09:21:17;13.63;;;5.47;;
28627;SDS011;15815;46.760;19.604;2023-05-07T09:23:43;7.28;;;5.50;;
28627;SDS011;15815;46.760;19.604;2023-05-07T09:26:09;10.27;;;5.70;;
28627;SDS011;15815;46.760;19.604;2023-05-07T09:28:34;24.48;;;7.05;;
28627;SDS011;15815;46.760;19.604;2023-05-07T09:31:01;7.70;;;5.45;;
28627;SDS011;15815;46.760;19.604;2023-05-07T09:33:27;9.25;;;5.80;;
28627;SDS011;15815;46.760;19.604;2023-05-07T09:35:53;6.57;;;4.95;;
28627;SDS011;15815;46.760;19.604;2023-05-07T09:38:19;8.68;;;6.18;;
28627;SDS011;15815;46.760;19.604;2023-05-07T09:40:46;7.82;;;5.50;;
28627;SDS011;15815;46.760;19.604;2023-05-07T09:43:13;8.85;;;6.30;;
28627;SDS011;15815;46.760;19.604;2023-05-07T09:45:39;9.65;;;6.28;;
28627;SDS011;15815;46.760;19.604;2023-05-07T09:48:05;10.07;;;6.15;;
28627;SDS011;15815;46.760;19.604;2023-05-07T09:50:39;8.80;;;6.47;;
28627;SDS011;15815;46.760;19.604;2023-05-07T09:53:15;9.18;;;6.53;;
28627;SDS011;15815;46.760;19.604;2023-05-07T09:55:42;8.38;;;6.82;;
28627;SDS011;15815;46.760;19.604;2023-05-07T09:58:09;10.45;;;6.82;;
28627;SDS011;15815;46.760;19.604;2023-05-07T10:00:37;13.18;;;6.03;;
28627;SDS011;15815;46.760;19.604;2023-05-07T10:03:05;7.13;;;6.22;;
28627;SDS011;15815;46.760;19.604;2023-05-07T10:05:32;6.70;;;5.50;;
28627;SDS011;15815;46.760;19.604;2023-05-07T10:07:59;6.07;;;5.47;;
28627;SDS011;15815;46.760;19.604;2023-05-07T10:10:26;7.30;;;4.93;;
28627;SDS011;15815;46.760;19.604;2023-05-07T10:12:52;8.43;;;5.13;;
28627;SDS011;15815;46.760;19.604;2023-05-07T10:15:19;7.60;;;4.90;;
28627;SDS011;15815;46.760;19.604;2023-05-07T10:17:45;6.72;;;5.45;;
28627;SDS011;15815;46.760;19.604;2023-05-07T10:20:10;5.15;;;4.72;;
28627;SDS011;15815;46.760;19.604;2023-05-07T10:22:37;6.07;;;5.45;;
28627;SDS011;15815;46.760;19.604;2023-05-07T10:25:13;6.57;;;5.30;;
28627;SDS011;15815;46.760;19.604;2023-05-07T10:27:51;6.05;;;5.47;;
28627;SDS011;15815;46.760;19.604;2023-05-07T10:32:55;10.05;;;4.95;;
28627;SDS011;15815;46.760;19.604;2023-05-07T10:35:25;9.50;;;5.22;;
28627;SDS011;15815;46.760;19.604;2023-05-07T10:37:52;7.05;;;5.07;;
28627;SDS011;15815;46.760;19.604;2023-05-07T10:40:19;8.13;;;5.55;;
28627;SDS011;15815;46.760;19.604;2023-05-07T10:42:58;12.73;;;5.38;;
28627;SDS011;15815;46.760;19.604;2023-05-07T10:45:26;10.18;;;4.65;;
28627;SDS011;15815;46.760;19.604;2023-05-07T10:48:08;10.20;;;5.18;;
28627;SDS011;15815;46.760;19.604;2023-05-07T10:50:34;8.35;;;4.75;;
28627;SDS011;15815;46.760;19.604;2023-05-07T10:55:42;7.32;;;5.53;;
28627;SDS011;15815;46.760;19.604;2023-05-07T10:58:28;7.65;;;5.20;;
28627;SDS011;15815;46.760;19.604;2023-05-07T11:01:03;10.07;;;5.13;;
28627;SDS011;15815;46.760;19.604;2023-05-07T11:03:28;8.68;;;5.35;;
28627;SDS011;15815;46.760;19.604;2023-05-07T11:06:14;9.32;;;5.30;;
28627;SDS011;15815;46.760;19.604;2023-05-07T11:11:19;7.90;;;5.95;;
28627;SDS011;15815;46.760;19.604;2023-05-07T11:13:48;7.82;;;5.85;;
28627;SDS011;15815;46.760;19.604;2023-05-07T11:16:24;11.20;;;6.47;;
28627;SDS011;15815;46.760;19.604;2023-05-07T11:18:54;8.75;;;6.28;;
28627;SDS011;15815;46.760;19.604;2023-05-07T11:21:39;8.93;;;5.93;;
28627;SDS011;15815;46.760;19.604;2023-05-07T11:24:07;6.93;;;6.10;;
28627;SDS011;15815;46.760;19.604;2023-05-07T11:26:49;6.82;;;5.22;;
28627;SDS011;15815;46.760;19.604;2023-05-07T11:29:16;5.95;;;5.45;;
28627;SDS011;15815;46.760;19.604;2023-05-07T11:31:44;9.55;;;5.35;;
28627;SDS011;15815;46.760;19.604;2023-05-07T11:34:14;7.43;;;5.35;;
28627;SDS011;15815;46.760;19.604;2023-05-07T11:36:45;6.97;;;4.57;;
28627;SDS011;15815;46.760;19.604;2023-05-07T11:41:54;5.82;;;4.32;;
28627;SDS011;15815;46.760;19.604;2023-05-07T11:44:20;6.38;;;4.57;;
28627;SDS011;15815;46.760;19.604;2023-05-07T11:46:45;4.88;;;4.38;;
28627;SDS011;15815;46.760;19.604;2023-05-07T11:49:14;7.88;;;3.83;;
28627;SDS011;15815;46.760;19.604;2023-05-07T11:51:40;4.90;;;4.03;;
28627;SDS011;15815;46.760;19.604;2023-05-07T11:54:05;4.03;;;3.58;;
28627;SDS011;15815;46.760;19.604;2023-05-07T11:56:33;4.40;;;3.67;;
28627;SDS011;15815;46.760;19.604;2023-05-07T11:59:00;4.53;;;3.17;;
28627;SDS011;15815;46.760;19.604;2023-05-07T12:01:26;5.57;;;3.08;;
28627;SDS011;15815;46.760;19.604;2023-05-07T12:03:51;6.57;;;2.63;;
28627;SDS011;15815;46.760;19.604;2023-05-07T12:06:17;4.75;;;2.38;;
28627;SDS011;15815;46.760;19.604;2023-05-07T12:08:43;5.90;;;3.10;;
28627;SDS011;15815;46.760;19.604;2023-05-07T12:11:12;6.07;;;2.85;;
28627;SDS011;15815;46.760;19.604;2023-05-07T12:13:40;4.15;;;2.80;;
28627;SDS011;15815;46.760;19.604;2023-05-07T12:16:06;5.85;;;2.85;;
28627;SDS011;15815;46.760;19.604;2023-05-07T12:18:32;4.30;;;2.50;;
28627;SDS011;15815;46.760;19.604;2023-05-07T12:20:59;3.75;;;2.85;;
28627;SDS011;15815;46.760;19.604;2023-05-07T12:23:25;8.40;;;2.90;;
28627;SDS011;15815;46.760;19.604;2023-05-07T12:25:50;6.07;;;2.60;;
28627;SDS011;15815;46.760;19.604;2023-05-07T12:28:17;3.78;;;2.42;;
28627;SDS011;15815;46.760;19.604;2023-05-07T12:30:44;6.25;;;2.05;;
28627;SDS011;15815;46.760;19.604;2023-05-07T12:33:23;2.50;;;2.30;;
28627;SDS011;15815;46.760;19.604;2023-05-07T12:35:49;4.05;;;2.20;;
28627;SDS011;15815;46.760;19.604;2023-05-07T12:38:16;6.80;;;2.50;;
28627;SDS011;15815;46.760;19.604;2023-05-07T12:40:43;6.60;;;2.63;;
28627;SDS011;15815;46.760;19.604;2023-05-07T12:43:20;4.07;;;2.05;;
28627;SDS011;15815;46.760;19.604;2023-05-07T12:45:49;2.67;;;2.28;;
28627;SDS011;15815;46.760;19.604;2023-05-07T12:48:16;1.98;;;1.80;;
28627;SDS011;15815;46.760;19.604;2023-05-07T12:50:41;3.40;;;1.70;;
28627;SDS011;15815;46.760;19.604;2023-05-07T12:53:07;3.05;;;1.40;;
28627;SDS011;15815;46.760;19.604;2023-05-07T12:55:42;3.40;;;1.50;;
28627;SDS011;15815;46.760;19.604;2023-05-07T12:58:14;2.35;;;1.60;;
28627;SDS011;15815;46.760;19.604;2023-05-07T13:00:41;3.58;;;1.45;;
28627;SDS011;15815;46.760;19.604;2023-05-07T13:03:06;1.33;;;1.20;;
28627;SDS011;15815;46.760;19.604;2023-05-07T13:05:32;1.92;;;1.40;;
28627;SDS011;15815;46.760;19.604;2023-05-07T13:07:58;1.20;;;1.10;;
28627;SDS011;15815;46.760;19.604;2023-05-07T13:10:23;2.45;;;1.20;;
28627;SDS011;15815;46.760;19.604;2023-05-07T13:12:50;3.60;;;1.63;;
28627;SDS011;15815;46.760;19.604;2023-05-07T13:15:16;2.50;;;1.42;;
28627;SDS011;15815;46.760;19.604;2023-05-07T13:17:41;1.13;;;1.05;;
28627;SDS011;15815;46.760;19.604;2023-05-07T13:20:08;2.28;;;1.27;;
28627;SDS011;15815;46.760;19.604;2023-05-07T13:22:34;2.67;;;1.30;;
28627;SDS011;15815;46.760;19.604;2023-05-07T13:25:03;4.00;;;1.58;;
28627;SDS011;15815;46.760;19.604;2023-05-07T13:27:29;3.38;;;1.33;;
28627;SDS011;15815;46.760;19.604;2023-05-07T13:29:55;2.78;;;1.50;;
28627;SDS011;15815;46.760;19.604;2023-05-07T13:32:20;2.55;;;1.90;;
28627;SDS011;15815;46.760;19.604;2023-05-07T13:34:46;2.65;;;1.27;;
28627;SDS011;15815;46.760;19.604;2023-05-07T13:37:11;1.92;;;1.50;;
28627;SDS011;15815;46.760;19.604;2023-05-07T13:39:37;2.33;;;1.70;;
28627;SDS011;15815;46.760;19.604;2023-05-07T13:42:02;1.48;;;1.20;;
28627;SDS011;15815;46.760;19.604;2023-05-07T13:44:31;3.28;;;1.33;;
28627;SDS011;15815;46.760;19.604;2023-05-07T13:46:56;1.98;;;1.45;;
28627;SDS011;15815;46.760;19.604;2023-05-07T13:49:22;1.23;;;1.13;;
28627;SDS011;15815;46.760;19.604;2023-05-07T13:51:50;2.22;;;1.42;;
28627;SDS011;15815;46.760;19.604;2023-05-07T13:54:16;1.48;;;1.35;;
28627;SDS011;15815;46.760;19.604;2023-05-07T13:56:41;1.30;;;1.20;;
28627;SDS011;15815;46.760;19.604;2023-05-07T13:59:07;2.25;;;1.30;;
28627;SDS011;15815;46.760;19.604;2023-05-07T14:01:32;2.08;;;1.30;;
28627;SDS011;15815;46.760;19.604;2023-05-07T14:03:58;2.22;;;1.00;;
28627;SDS011;15815;46.760;19.604;2023-05-07T14:06:24;2.97;;;1.30;;
28627;SDS011;15815;46.760;19.604;2023-05-07T14:08:49;3.45;;;1.08;;
28627;SDS011;15815;46.760;19.604;2023-05-07T14:11:15;3.33;;;1.40;;
28627;SDS011;15815;46.760;19.604;2023-05-07T14:13:40;1.00;;;0.90;;
28627;SDS011;15815;46.760;19.604;2023-05-07T14:16:06;4.35;;;1.40;;
28627;SDS011;15815;46.760;19.604;2023-05-07T14:18:31;1.27;;;1.15;;
28627;SDS011;15815;46.760;19.604;2023-05-07T14:20:57;1.85;;;1.10;;
28627;SDS011;15815;46.760;19.604;2023-05-07T14:23:22;1.42;;;0.90;;
28627;SDS011;15815;46.760;19.604;2023-05-07T14:25:48;1.73;;;1.20;;
28627;SDS011;15815;46.760;19.604;2023-05-07T14:28:13;2.90;;;1.10;;
28627;SDS011;15815;46.760;19.604;2023-05-07T14:30:39;2.45;;;1.00;;
28627;SDS011;15815;46.760;19.604;2023-05-07T14:33:05;7.40;;;1.40;;